Time;durP1;ratioP1;P1;durP2;ratioP2;P2;SDS_P1;SDS_P2;PMS_P1;PMS_P2;Temp;Humidity;BMP_temperature;BMP_pressure;BME280_temperature;BME280_humidity;BME280_pressure;Samples;Min_cycle;Max_cycle;Signal;HPM_P1;HPM_P2
2022/11/07 00:01:19;;;;;;;2.00;1.90;;;;;;;15.45;50.84;98633.00;6975539;28;20718;-81
2022/11/07 00:04:40;;;;;;;2.50;2.10;;;;;;;15.41;51.56;98644.59;6975921;28;20300;-81
2022/11/07 00:08:03;;;;;;;2.63;2.20;;;;;;;15.64;51.18;98641.81;6975320;28;20690;-81
2022/11/07 00:11:25;;;;;;;2.20;2.00;;;;;;;15.16;52.69;98654.88;6975676;28;20262;-81
2022/11/07 00:14:46;;;;;;;1.90;1.80;;;;;;;15.38;52.57;98645.06;6975762;28;20688;-81
2022/11/07 00:18:08;;;;;;;2.43;2.23;;;;;;;15.72;51.21;98631.38;6974531;28;20349;-81
2022/11/07 00:21:30;;;;;;;2.17;2.07;;;;;;;16.06;50.50;98676.66;6974551;28;20335;-82
2022/11/07 00:24:52;;;;;;;2.20;2.10;;;;;;;16.08;50.68;98670.94;6975004;28;20375;-81
2022/11/07 00:28:14;;;;;;;2.30;2.00;;;;;;;15.26;53.32;98668.66;6968880;28;20209;-81
2022/11/07 00:31:35;;;;;;;2.00;1.90;;;;;;;15.28;52.71;98634.78;6946583;28;20323;-81
2022/11/07 00:34:57;;;;;;;2.00;1.90;;;;;;;15.85;52.04;98687.34;6946108;28;20304;-81
2022/11/07 00:38:18;;;;;;;2.00;1.90;;;;;;;15.26;53.79;98682.25;6945670;28;20235;-81
2022/11/07 00:41:41;;;;;;;2.20;2.00;;;;;;;15.05;55.62;98682.88;6946200;28;20314;-81
2022/11/07 00:45:03;;;;;;;2.80;1.97;;;;;;;15.34;54.91;98685.47;6947268;28;20272;-81
2022/11/07 00:48:25;;;;;;;1.90;1.80;;;;;;;15.62;54.85;98692.88;6947018;28;20216;-81
2022/11/07 00:51:46;;;;;;;2.00;1.80;;;;;;;15.68;53.31;98641.09;6947735;28;20318;-81
2022/11/07 00:55:08;;;;;;;1.90;1.80;;;;;;;15.86;53.92;98710.78;6947352;28;20271;-81
2022/11/07 00:58:32;;;;;;;2.00;1.90;;;;;;;15.50;54.65;98686.63;6947103;28;20203;-81
2022/11/07 01:01:53;;;;;;;1.80;1.70;;;;;;;15.69;54.36;98679.97;6947311;28;20306;-80
2022/11/07 01:05:14;;;;;;;2.50;1.80;;;;;;;15.66;55.10;98710.34;6947232;28;20208;-81
2022/11/07 01:08:35;;;;;;;1.90;1.80;;;;;;;15.77;55.17;98704.06;6946537;28;20207;-81
2022/11/07 01:11:57;;;;;;;1.87;1.60;;;;;;;15.49;55.95;98704.00;6946528;28;20319;-78
2022/11/07 01:15:20;;;;;;;2.20;2.00;;;;;;;15.29;56.51;98698.09;6947253;28;20622;-79
2022/11/07 01:18:41;;;;;;;1.70;1.60;;;;;;;15.73;55.67;98708.31;6946367;28;20294;-79
2022/11/07 01:22:03;;;;;;;1.60;1.50;;;;;;;15.99;55.01;98705.06;6946038;28;20234;-79
2022/11/07 01:25:24;;;;;;;1.70;1.60;;;;;;;15.85;55.21;98688.19;6945235;28;20635;-79
2022/11/07 01:28:46;;;;;;;2.33;1.90;;;;;;;15.78;55.53;98689.38;6944785;28;20299;-78
2022/11/07 01:32:09;;;;;;;2.00;1.90;;;;;;;15.35;56.54;98691.72;6945082;28;20365;-79
2022/11/07 01:35:32;;;;;;;2.20;2.00;;;;;;;15.50;56.38;98682.03;6944940;28;20326;-79
2022/11/07 01:38:53;;;;;;;2.57;1.77;;;;;;;15.25;57.10;98696.91;6943967;28;20295;-79
2022/11/07 01:42:15;;;;;;;2.17;1.97;;;;;;;15.53;56.89;98703.28;6945012;28;20257;-78
2022/11/07 01:45:37;;;;;;;1.70;1.60;;;;;;;15.61;56.15;98704.78;6944510;28;20213;-79
2022/11/07 01:49:04;;;;;;;1.93;1.83;;;;;;;15.83;55.07;98676.75;6945626;28;20601;-79
2022/11/07 01:52:27;;;;;;;2.20;1.70;;;;;;;15.95;55.24;98687.56;6945915;28;20316;-79
2022/11/07 01:55:49;;;;;;;1.77;1.67;;;;;;;16.33;53.80;98666.00;6945432;28;20350;-79
2022/11/07 01:59:13;;;;;;;2.10;1.90;;;;;;;16.37;53.95;98675.31;6945838;28;20322;-81
2022/11/07 02:02:35;;;;;;;2.47;1.90;;;;;;;16.31;53.54;98663.53;6946007;28;20265;-79
2022/11/07 02:06:01;;;;;;;1.93;1.80;;;;;;;16.07;54.78;98699.22;6945899;28;20299;-79
2022/11/07 02:09:23;;;;;;;3.17;2.07;;;;;;;16.32;53.50;98692.38;6953778;28;20282;-79
2022/11/07 02:12:44;;;;;;;1.93;1.80;;;;;;;15.72;55.38;98685.75;6978689;28;20303;-79
2022/11/07 02:16:06;;;;;;;2.20;1.63;;;;;;;15.88;54.86;98687.72;6978452;28;20284;-79
2022/11/07 02:19:34;;;;;;;2.60;2.10;;;;;;;15.86;54.82;98689.84;6977625;28;20226;-79
2022/11/07 02:22:57;;;;;;;2.10;1.90;;;;;;;16.00;54.74;98684.94;6977867;28;20319;-79
2022/11/07 02:26:21;;;;;;;2.27;1.83;;;;;;;16.15;54.07;98691.50;6978477;28;20356;-79
2022/11/07 02:29:45;;;;;;;2.60;1.80;;;;;;;15.70;55.33;98687.88;6966031;28;20293;-79
2022/11/07 02:33:17;;;;;;;2.27;1.60;;;;;;;16.08;54.22;98698.16;6950607;28;20271;-78
2022/11/07 02:36:39;;;;;;;2.10;1.80;;;;;;;16.03;54.27;98698.88;6951188;28;20272;-79
2022/11/07 02:40:03;;;;;;;2.00;1.80;;;;;;;16.27;53.60;98684.13;6949268;28;20311;-79
2022/11/07 02:43:28;;;;;;;2.67;2.00;;;;;;;16.24;53.66;98691.94;6949994;28;20684;-79
2022/11/07 02:46:49;;;;;;;4.03;2.03;;;;;;;15.81;54.89;98670.69;6950012;28;20359;-78
2022/11/07 02:50:13;;;;;;;2.13;1.90;;;;;;;16.27;53.67;98669.69;6949123;28;20242;-79
2022/11/07 02:53:35;;;;;;;3.07;1.80;;;;;;;16.04;53.97;98662.47;6949341;28;20281;-78
2022/11/07 02:56:56;;;;;;;2.17;1.97;;;;;;;15.87;55.10;98671.66;6950381;28;20689;-79
2022/11/07 03:00:19;;;;;;;2.50;2.17;;;;;;;15.73;55.58;98686.56;6948316;28;20297;-79
2022/11/07 03:03:42;;;;;;;1.63;1.53;;;;;;;16.17;54.14;98680.38;6949243;28;20772;-79
2022/11/07 03:07:04;;;;;;;2.13;1.90;;;;;;;16.23;54.22;98684.84;6950152;28;20730;-79
2022/11/07 03:10:25;;;;;;;3.73;1.90;;;;;;;15.95;54.80;98669.38;6961343;28;20270;-79
2022/11/07 03:13:48;;;;;;;2.07;1.97;;;;;;;15.73;55.52;98670.25;6976763;28;20720;-79
2022/11/07 03:17:11;;;;;;;2.30;1.77;;;;;;;15.95;54.94;98669.38;6976484;28;20298;-79
2022/11/07 03:20:32;;;;;;;2.50;1.93;;;;;;;16.23;54.08;98668.53;6975654;28;20345;-79
2022/11/07 03:23:54;;;;;;;2.77;1.67;;;;;;;16.28;54.05;98669.44;6976657;28;20325;-79
2022/11/07 03:27:15;;;;;;;2.10;1.90;;;;;;;16.39;53.87;98681.38;6976197;28;20685;-79
2022/11/07 03:30:37;;;;;;;1.87;1.70;;;;;;;16.40;53.71;98680.31;6975128;28;20234;-79
2022/11/07 03:34:00;;;;;;;3.70;1.80;;;;;;;16.28;53.95;98690.41;6976604;28;20323;-79
2022/11/07 03:37:21;;;;;;;2.30;2.10;;;;;;;16.15;54.27;98691.50;6976151;28;20245;-79
2022/11/07 03:40:45;;;;;;;2.10;2.00;;;;;;;16.12;54.25;98691.16;6976523;28;20299;-79
2022/11/07 03:44:07;;;;;;;5.43;3.00;;;;;;;16.25;54.54;98702.59;6977190;28;20253;-79
2022/11/07 03:47:28;;;;;;;1.90;1.80;;;;;;;16.11;54.28;98694.97;6974736;28;20328;-79
2022/11/07 03:50:51;;;;;;;2.20;1.73;;;;;;;16.23;54.44;98698.47;6974282;28;20356;-79
2022/11/07 03:54:13;;;;;;;2.17;2.00;;;;;;;16.23;54.57;98695.72;6974763;28;20324;-79
2022/11/07 03:57:34;;;;;;;1.87;1.77;;;;;;;15.60;55.89;98693.13;6973884;28;20309;-79
2022/11/07 04:00:56;;;;;;;1.87;1.70;;;;;;;16.41;53.91;98690.13;6974536;28;20208;-81
2022/11/07 04:04:17;;;;;;;2.00;1.80;;;;;;;16.14;54.41;98703.47;6974885;28;20311;-81
2022/11/07 04:07:40;;;;;;;1.77;1.67;;;;;;;16.23;54.22;98703.91;6973912;28;20296;-81
2022/11/07 04:11:02;;;;;;;2.73;2.00;;;;;;;16.41;53.29;98680.06;6975441;28;20296;-81
2022/11/07 04:18:02;;;;;;;2.03;1.90;;;;;;;16.74;52.44;98706.50;6974684;28;20184;-80
2022/11/07 04:21:24;;;;;;;2.47;1.90;;;;;;;16.94;51.68;98710.38;6973946;28;20700;-81
2022/11/07 04:24:47;;;;;;;3.80;2.60;;;;;;;16.60;52.46;98705.16;6974165;28;20303;-81
2022/11/07 04:28:07;;;;;;;1.60;1.50;;;;;;;15.81;53.25;98659.81;6972788;28;20352;-81
2022/11/07 04:31:29;;;;;;;1.70;1.60;;;;;;;16.55;52.83;98726.81;6970558;28;20232;-80
2022/11/07 04:34:50;;;;;;;1.80;1.70;;;;;;;16.01;52.52;98635.75;6974600;28;20296;-81
2022/11/07 04:38:12;;;;;;;2.50;1.70;;;;;;;16.48;52.55;98691.63;6974879;28;20675;-81
2022/11/07 04:41:35;;;;;;;2.03;1.83;;;;;;;16.60;52.42;98716.88;6973779;28;20365;-81
2022/11/07 04:44:56;;;;;;;2.23;2.00;;;;;;;16.73;51.75;98707.53;6974041;28;20306;-80
2022/11/07 04:48:19;;;;;;;1.87;1.77;;;;;;;16.75;51.97;98711.66;6974021;28;20722;-81
2022/11/07 04:51:41;;;;;;;2.70;1.90;;;;;;;16.29;52.89;98721.97;6974835;28;20365;-81
2022/11/07 04:55:04;;;;;;;2.13;1.93;;;;;;;16.51;52.75;98731.13;6974217;28;20216;-80
2022/11/07 04:58:26;;;;;;;2.80;1.80;;;;;;;16.41;53.14;98749.97;6972453;28;20251;-81
2022/11/07 05:01:48;;;;;;;1.90;1.70;;;;;;;16.53;52.23;98727.09;6973354;28;20315;-80
2022/11/07 05:05:10;;;;;;;2.80;1.90;;;;;;;16.72;52.31;98739.41;6973020;28;20668;-81
2022/11/07 05:08:32;;;;;;;4.70;1.80;;;;;;;16.75;51.90;98744.34;6973059;28;20295;-80
2022/11/07 05:11:54;;;;;;;3.30;1.90;;;;;;;16.42;53.01;98735.31;6974056;28;20381;-81
2022/11/07 05:15:17;;;;;;;2.80;1.80;;;;;;;16.31;53.89;98739.69;6972800;28;20672;-81
2022/11/07 05:18:39;;;;;;;3.57;1.97;;;;;;;16.46;53.21;98742.72;6971771;28;20294;-81
2022/11/07 05:25:40;;;;;;;2.87;2.17;;;;;;;16.39;53.21;98746.69;6972207;28;20204;-80
2022/11/07 05:29:01;;;;;;;4.37;3.13;;;;;;;16.38;53.33;98748.56;6972539;28;20338;-80
2022/11/07 05:32:24;;;;;;;3.20;2.00;;;;;;;16.55;52.86;98752.16;6972484;28;20227;-81
2022/11/07 05:35:46;;;;;;;3.10;2.00;;;;;;;16.34;53.54;98754.72;6972444;28;20254;-81
2022/11/07 05:39:08;;;;;;;2.47;2.17;;;;;;;16.31;53.70;98749.75;6971135;28;20261;-81
2022/11/07 05:42:29;;;;;;;3.47;2.20;;;;;;;16.00;54.61;98755.66;6973752;28;20222;-81
2022/11/07 05:45:51;;;;;;;3.30;3.00;;;;;;;16.17;53.89;98740.22;6978508;28;20515;-81
2022/11/07 05:49:14;;;;;;;2.53;2.10;;;;;;;16.44;53.53;98753.03;6977461;28;20222;-81
2022/11/07 05:52:35;;;;;;;3.83;2.10;;;;;;;15.83;55.20;98761.03;6978161;28;20317;-80
2022/11/07 05:55:57;;;;;;;3.43;1.97;;;;;;;15.83;55.18;98755.59;6976183;28;20231;-80
2022/11/07 05:59:18;;;;;;;3.07;2.17;;;;;;;15.98;55.01;98761.31;6974915;28;20233;-80
2022/11/07 06:02:40;;;;;;;3.60;2.13;;;;;;;15.86;55.06;98757.00;6961822;28;20266;-80
2022/11/07 06:06:04;;;;;;;2.27;1.93;;;;;;;16.20;54.40;98765.06;6979312;28;20298;-81
2022/11/07 06:09:25;;;;;;;4.60;1.90;;;;;;;16.05;54.70;98751.13;6979337;28;20212;-81
2022/11/07 06:12:47;;;;;;;2.57;2.03;;;;;;;16.17;54.47;98768.25;6980508;28;20319;-81
2022/11/07 06:16:08;;;;;;;2.63;1.90;;;;;;;15.95;54.75;98759.09;6981007;28;20691;-81
2022/11/07 06:19:30;;;;;;;3.13;2.10;;;;;;;15.59;56.15;98777.59;6979782;28;20234;-81
2022/11/07 06:22:57;;;;;;;2.50;2.30;;;;;;;15.37;56.09;98739.34;6980782;28;20225;-80
2022/11/07 06:26:18;;;;;;;3.90;2.50;;;;;;;16.01;55.21;98757.31;6984225;28;20241;-82
2022/11/07 06:29:40;;;;;;;4.00;2.57;;;;;;;15.86;55.27;98774.13;6977651;28;20286;-81
2022/11/07 06:33:02;;;;;;;3.13;2.20;;;;;;;16.35;54.05;98772.69;6956285;28;20232;-81
2022/11/07 06:36:23;;;;;;;4.93;2.10;;;;;;;16.32;53.93;98765.84;6953210;28;20673;-81
2022/11/07 06:39:46;;;;;;;4.03;2.93;;;;;;;16.36;54.01;98777.06;6951949;28;20578;-80
2022/11/07 06:43:09;;;;;;;3.13;2.30;;;;;;;16.23;54.46;98777.34;6952565;28;20227;-81
2022/11/07 06:46:30;;;;;;;3.57;2.43;;;;;;;16.10;54.54;98783.06;6952707;28;20215;-80
2022/11/07 06:49:52;;;;;;;2.37;2.17;;;;;;;16.30;54.25;98789.75;6969097;28;20687;-80
2022/11/07 06:53:14;;;;;;;3.30;2.10;;;;;;;15.65;56.11;98785.63;6978114;28;20326;-78
2022/11/07 06:56:36;;;;;;;6.50;2.47;;;;;;;15.91;55.58;98787.84;6980121;28;20275;-79
2022/11/07 06:59:58;;;;;;;3.43;2.23;;;;;;;15.98;55.47;98782.28;6984897;28;20253;-79
2022/11/07 07:03:19;;;;;;;3.90;2.53;;;;;;;16.05;54.95;98777.53;6982683;28;20224;-79
2022/11/07 07:06:42;;;;;;;3.00;2.00;;;;;;;16.28;54.37;98788.34;6978277;28;20200;-79
2022/11/07 07:10:04;;;;;;;2.47;2.07;;;;;;;16.17;54.69;98800.06;6977425;28;20220;-79
2022/11/07 07:13:27;;;;;;;3.63;2.67;;;;;;;16.53;53.91;98797.03;6978062;28;20267;-79
2022/11/07 07:16:48;;;;;;;3.40;2.20;;;;;;;16.36;53.57;98761.56;6978679;28;20347;-80
2022/11/07 07:20:11;;;;;;;3.10;2.37;;;;;;;16.62;53.29;98811.88;6977640;28;20257;-78
2022/11/07 07:23:33;;;;;;;2.53;2.33;;;;;;;16.91;53.03;98817.06;6978086;28;20254;-80
2022/11/07 07:26:55;;;;;;;5.03;2.70;;;;;;;16.81;52.92;98788.84;6977608;28;20213;-80
2022/11/07 07:30:18;;;;;;;3.20;2.33;;;;;;;16.99;52.77;98818.59;6976614;28;20233;-80
2022/11/07 07:33:39;;;;;;;3.10;2.30;;;;;;;17.28;52.33;98814.72;6976650;28;20689;-80
2022/11/07 07:37:01;;;;;;;2.73;2.33;;;;;;;17.51;51.40;98817.31;6976166;28;20302;-79
2022/11/07 07:40:22;;;;;;;5.60;2.30;;;;;;;17.52;51.25;98825.22;6975548;28;20274;-79
2022/11/07 07:43:44;;;;;;;6.47;2.37;;;;;;;17.28;51.89;98815.53;6974824;28;20314;-79
2022/11/07 07:47:07;;;;;;;3.63;2.00;;;;;;;17.24;51.98;98819.84;6974688;28;20277;-79
2022/11/07 07:50:28;;;;;;;3.60;2.30;;;;;;;17.23;51.68;98815.44;6963808;28;20252;-80
2022/11/07 07:53:50;;;;;;;5.07;2.37;;;;;;;17.52;51.78;98816.25;6965268;28;20261;-79
2022/11/07 07:57:11;;;;;;;4.63;2.40;;;;;;;17.28;51.66;98806.56;6947956;28;20876;-79
2022/11/07 08:00:33;;;;;;;3.60;2.30;;;;;;;17.31;52.04;98827.84;6948129;28;20331;-79
2022/11/07 08:03:56;;;;;;;4.60;2.60;;;;;;;17.50;51.70;98815.63;6948567;28;20726;-79
2022/11/07 08:07:17;;;;;;;3.67;2.33;;;;;;;17.59;51.55;98809.53;6968604;28;20296;-80
2022/11/07 08:10:39;;;;;;;4.43;2.20;;;;;;;17.70;50.86;98822.22;6975766;28;20243;-79
2022/11/07 08:14:00;;;;;;;3.47;1.97;;;;;;;18.67;48.37;98812.34;6976452;28;20787;-80
2022/11/07 08:17:22;;;;;;;3.23;2.30;;;;;;;19.36;46.84;98815.00;6975814;28;20293;-78
2022/11/07 08:20:44;;;;;;;2.27;1.83;;;;;;;19.62;46.16;98826.91;6975793;28;20551;-79
2022/11/07 08:24:07;;;;;;;4.87;2.30;;;;;;;19.16;47.40;98831.16;6975970;28;20776;-79
2022/11/07 08:27:29;;;;;;;3.03;1.90;;;;;;;18.93;47.69;98834.22;6972989;28;20880;-80
2022/11/07 08:30:57;;;;;;;5.83;2.70;;;;;;;18.35;49.17;98834.06;6971678;28;20344;-79
2022/11/07 08:34:19;;;;;;;5.17;3.20;;;;;;;18.53;49.01;98828.31;6975279;28;20338;-79
2022/11/07 08:37:41;;;;;;;6.03;2.83;;;;;;;18.65;48.17;98798.13;6975571;28;20301;-80
2022/11/07 08:41:03;;;;;;;4.20;2.13;;;;;;;18.57;48.05;98823.19;6965662;28;20243;-79
2022/11/07 08:44:25;;;;;;;3.23;2.03;;;;;;;18.48;49.10;98839.19;6947850;28;20306;-79
2022/11/07 08:47:46;;;;;;;5.00;2.40;;;;;;;18.22;49.69;98839.88;6948463;28;20261;-79
2022/11/07 08:51:09;;;;;;;4.03;2.00;;;;;;;18.14;49.54;98809.47;6947985;28;20724;-80
2022/11/07 08:54:33;;;;;;;4.83;2.20;;;;;;;18.47;49.07;98836.69;6948320;28;20715;-79
2022/11/07 08:57:58;;;;;;;3.43;2.20;;;;;;;18.19;49.47;98831.38;6947327;28;20349;-79
2022/11/07 09:01:20;;;;;;;3.60;2.13;;;;;;;18.32;49.31;98831.88;6969052;28;20608;-79
2022/11/07 09:04:41;;;;;;;6.00;2.00;;;;;;;18.35;49.27;98841.47;6975305;28;20273;-79
2022/11/07 09:08:03;;;;;;;4.50;2.37;;;;;;;18.50;48.45;98838.91;6972964;28;20655;-79
2022/11/07 09:11:26;;;;;;;2.50;2.20;;;;;;;18.67;48.53;98831.47;6974722;28;20341;-79
2022/11/07 09:14:48;;;;;;;5.60;2.43;;;;;;;18.35;48.59;98836.00;6974661;28;20380;-79
2022/11/07 09:18:09;;;;;;;5.03;2.40;;;;;;;18.62;48.74;98836.84;6970570;28;20341;-79
2022/11/07 09:21:31;;;;;;;5.20;2.30;;;;;;;18.96;47.75;98835.59;6966087;28;20234;-79
2022/11/07 09:24:52;;;;;;;5.40;3.37;;;;;;;19.14;46.95;98843.44;6974488;28;20679;-79
2022/11/07 09:28:15;;;;;;;3.93;2.27;;;;;;;19.20;46.92;98834.19;6973306;28;20233;-79
2022/11/07 09:31:37;;;;;;;2.57;2.23;;;;;;;19.35;46.48;98850.78;6973565;28;20775;-79
2022/11/07 09:34:59;;;;;;;4.33;2.47;;;;;;;19.61;46.17;98852.63;6969692;28;20253;-78
2022/11/07 09:38:21;;;;;;;4.03;2.20;;;;;;;19.69;46.24;98865.84;6970966;28;20206;-78
2022/11/07 09:41:50;;;;;;;3.93;2.27;;;;;;;19.15;46.77;98856.00;6974569;28;20317;-78
2022/11/07 09:45:13;;;;;;;4.90;2.10;;;;;;;19.46;46.31;98863.47;6974369;28;20629;-78
2022/11/07 09:48:41;;;;;;;5.07;2.10;;;;;;;19.21;46.28;98858.59;6974017;28;20676;-78
2022/11/07 09:52:08;;;;;;;6.57;3.00;;;;;;;19.01;46.45;98868.44;6945813;28;20310;-78
2022/11/07 09:55:32;;;;;;;5.33;1.90;;;;;;;19.48;46.19;98869.50;6949846;28;20297;-78
2022/11/07 09:58:54;;;;;;;5.80;1.97;;;;;;;19.62;45.73;98867.97;6972937;28;20356;-79
2022/11/07 10:02:18;;;;;;;4.37;2.07;;;;;;;19.64;45.48;98872.09;6974593;28;20294;-78
2022/11/07 10:05:46;;;;;;;6.57;2.33;;;;;;;19.66;45.84;98864.47;6974059;28;20289;-78
2022/11/07 10:09:11;;;;;;;4.23;1.60;;;;;;;19.59;45.90;98863.03;6974140;28;20202;-79
2022/11/07 10:12:51;;;;;;;3.43;2.03;;;;;;;19.77;45.18;98859.88;6977186;28;20229;-81
2022/11/07 10:16:19;;;;;;;5.57;2.10;;;;;;;18.91;46.56;98871.91;6977333;28;20230;-79
2022/11/07 10:19:50;;;;;;;4.43;2.03;;;;;;;18.50;47.60;98833.44;6985591;28;20193;-80
2022/11/07 10:23:25;;;;;;;6.77;1.93;;;;;;;19.27;46.06;98863.00;6981148;28;20256;-79
2022/11/07 10:26:47;;;;;;;3.80;1.90;;;;;;;19.31;45.85;98841.44;6975352;28;20319;-78
2022/11/07 10:30:16;;;;;;;1.93;1.60;;;;;;;19.57;45.45;98852.34;6977963;28;20289;-79
2022/11/07 10:33:40;;;;;;;7.30;2.07;;;;;;;19.24;45.77;98852.63;6980600;28;20609;-78
2022/11/07 10:37:03;;;;;;;2.83;1.87;;;;;;;19.62;45.51;98827.75;6979509;28;20210;-79
2022/11/07 10:40:28;;;;;;;6.10;2.30;;;;;;;19.82;44.65;98830.63;6978079;28;20241;-79
2022/11/07 10:43:52;;;;;;;2.73;1.80;;;;;;;19.30;45.54;98835.16;6978456;28;20226;-78
2022/11/07 10:47:17;;;;;;;10.53;2.50;;;;;;;19.76;44.91;98828.94;6965142;28;20211;-78
2022/11/07 10:50:38;;;;;;;5.07;2.50;;;;;;;19.83;44.83;98842.41;6978320;28;20312;-78
2022/11/07 10:54:01;;;;;;;2.97;2.00;;;;;;;20.18;44.10;98842.66;6978177;28;20758;-78
2022/11/07 10:57:23;;;;;;;3.77;2.10;;;;;;;20.32;43.20;98832.88;6978650;28;20244;-78
2022/11/07 11:00:45;;;;;;;5.00;2.20;;;;;;;20.44;43.74;98822.50;6950922;28;20308;-78
2022/11/07 11:04:06;;;;;;;3.67;2.03;;;;;;;20.51;43.32;98817.63;6950223;28;20224;-78
2022/11/07 11:07:34;;;;;;;6.90;2.00;;;;;;;20.61;43.02;98818.47;6949527;28;20680;-79
2022/11/07 11:10:57;;;;;;;4.47;1.67;;;;;;;20.71;43.13;98804.81;6977236;28;20206;-81
2022/11/07 11:14:21;;;;;;;7.40;3.80;;;;;;;21.02;42.56;98823.81;6981368;28;20339;-79
2022/11/07 11:17:42;;;;;;;4.73;2.23;;;;;;;21.05;41.82;98814.22;6978152;28;20305;-79
2022/11/07 11:21:05;;;;;;;3.23;2.13;;;;;;;20.40;42.84;98775.66;6978338;28;20295;-78
2022/11/07 11:24:34;;;;;;;2.73;2.10;;;;;;;20.46;43.58;98787.47;6978804;28;20207;-78
2022/11/07 11:28:01;;;;;;;5.23;2.13;;;;;;;20.90;43.28;98808.72;6977101;28;20654;-79
2022/11/07 11:31:26;;;;;;;5.67;2.20;;;;;;;;;;6977661;28;20306;-79
2022/11/07 11:35:03;;;;;;;4.63;2.20;;;;;;;20.90;42.36;98808.72;6977111;28;20777;-79
2022/11/07 11:38:27;;;;;;;7.07;3.40;;;;;;;21.34;42.58;98813.44;6973500;28;20201;-79
2022/11/07 11:41:53;;;;;;;4.13;1.87;;;;;;;21.33;41.97;98821.94;6973510;28;20260;-79
2022/11/07 11:45:25;;;;;;;2.67;1.70;;;;;;;21.57;41.98;98810.16;6977182;28;20232;-79
2022/11/07 11:48:50;;;;;;;4.17;2.27;;;;;;;22.14;39.98;98785.09;6976598;28;20706;-79
2022/11/07 11:52:15;;;;;;;4.70;2.60;;;;;;;21.89;40.92;98805.19;6977163;28;20670;-79
2022/11/07 11:55:42;;;;;;;4.20;2.27;;;;;;;21.81;41.25;98810.41;6972353;28;20310;-79
2022/11/07 11:59:19;;;;;;;3.60;2.10;;;;;;;21.06;42.49;98817.81;6976775;28;20631;-80
2022/11/07 12:03:04;;;;;;;4.30;2.03;;;;;;;20.90;42.88;98819.69;6976993;28;20245;-79
2022/11/07 12:06:28;;;;;;;2.23;1.90;;;;;;;21.51;41.77;98792.03;6977312;28;20199;-79
2022/11/07 12:09:53;;;;;;;3.00;2.10;;;;;;;21.14;42.32;98807.94;6974023;28;20224;-80
2022/11/07 12:13:18;;;;;;;4.30;2.13;;;;;;;21.10;42.82;98808.75;6960805;28;20332;-80
2022/11/07 12:16:44;;;;;;;2.70;1.70;;;;;;;20.43;43.36;98741.44;6965682;28;20275;-80
2022/11/07 12:20:14;;;;;;;2.60;1.80;;;;;;;20.76;43.07;98809.50;6975650;28;20222;-77
2022/11/07 12:23:50;;;;;;;3.40;2.07;;;;;;;20.84;42.76;98794.16;6976033;28;20760;-77
2022/11/07 12:27:18;;;;;;;3.73;2.10;;;;;;;21.08;42.11;98799.97;6973356;28;20292;-79
2022/11/07 12:30:45;;;;;;;3.33;1.87;;;;;;;20.32;43.57;98800.84;6975793;28;20205;-80
2022/11/07 12:34:16;;;;;;;4.30;1.97;;;;;;;20.77;43.32;98805.66;6975891;28;20298;-80
2022/11/07 12:38:10;;;;;;;6.37;2.60;;;;;;;20.70;43.51;98800.41;7002673;28;20285;-80
2022/11/07 12:41:39;;;;;;;6.77;2.10;;;;;;;20.94;43.03;98795.31;6977505;28;20229;-80
2022/11/07 12:45:09;;;;;;;3.63;1.80;;;;;;;21.06;42.35;98785.75;7000706;28;20269;-80
2022/11/07 12:48:50;;;;;;;3.97;1.73;;;;;;;21.45;41.15;98778.59;6974603;28;20309;-80
2022/11/07 12:52:22;;;;;;;3.87;2.07;;;;;;;21.35;41.70;98748.41;6975516;28;20254;-80
2022/11/07 12:55:46;;;;;;;3.13;1.83;;;;;;;21.00;42.39;98786.81;6972741;28;20215;-78
2022/11/07 12:59:16;;;;;;;5.10;1.80;;;;;;;20.37;42.70;98740.63;6968895;28;20222;-78
2022/11/07 13:02:46;;;;;;;2.27;1.70;;;;;;;21.00;42.14;98788.72;6974726;28;20245;-78
2022/11/07 13:06:14;;;;;;;5.00;2.00;;;;;;;21.40;41.83;98778.59;6975455;28;20214;-76
2022/11/07 13:09:39;;;;;;;5.23;1.80;;;;;;;20.94;41.85;98785.16;6973917;28;20211;-77
2022/11/07 13:13:03;;;;;;;5.83;2.10;;;;;;;20.99;42.18;98779.66;6969779;28;20321;-78
2022/11/07 13:16:28;;;;;;;3.27;1.67;;;;;;;21.50;41.02;98787.66;6958001;28;20294;-77
2022/11/07 13:19:59;;;;;;;4.90;1.90;;;;;;;21.47;40.44;98769.00;6973683;28;20732;-77
2022/11/07 13:23:26;;;;;;;4.73;1.90;;;;;;;20.93;41.55;98764.31;6968761;28;20298;-77
2022/11/07 13:26:47;;;;;;;3.40;1.50;;;;;;;21.23;41.49;98777.25;6964894;28;20203;-77
2022/11/07 13:30:34;;;;;;;4.30;2.20;;;;;;;21.08;41.52;98778.84;6945518;28;20261;-76
2022/11/07 13:34:09;;;;;;;3.40;1.70;;;;;;;21.14;42.30;98774.22;6960586;28;20227;-77
2022/11/07 13:37:32;;;;;;;5.23;1.80;;;;;;;21.88;40.40;98764.28;6974228;28;20210;-77
2022/11/07 13:40:57;;;;;;;4.20;1.60;;;;;;;21.80;39.44;98737.41;6973519;28;20665;-77
2022/11/07 13:44:22;;;;;;;5.73;2.07;;;;;;;21.97;40.23;98759.88;6974194;28;20227;-77
2022/11/07 13:47:44;;;;;;;3.57;1.70;;;;;;;21.66;40.74;98767.31;6972670;28;20271;-77
2022/11/07 13:51:10;;;;;;;2.67;1.77;;;;;;;21.52;40.91;98751.69;6973502;28;20330;-78
2022/11/07 13:54:37;;;;;;;5.70;1.80;;;;;;;21.60;39.85;98764.88;6974149;28;20344;-77
2022/11/07 13:58:02;;;;;;;2.23;1.50;;;;;;;21.17;40.70;98754.47;6961124;28;20284;-76
2022/11/07 14:01:24;;;;;;;4.90;1.70;;;;;;;20.53;41.60;98757.91;6962160;28;20222;-76
2022/11/07 14:04:50;;;;;;;1.73;1.57;;;;;;;20.89;40.78;98770.63;6977616;28;20193;-76
2022/11/07 14:08:16;;;;;;;2.60;1.60;;;;;;;20.41;41.82;98735.41;6979255;28;20194;-75
2022/11/07 14:11:39;;;;;;;3.20;1.77;;;;;;;21.17;40.88;98764.63;6978180;28;20313;-78
2022/11/07 14:15:01;;;;;;;2.40;1.60;;;;;;;20.59;42.02;98770.53;6975208;28;20241;-77
2022/11/07 14:18:25;;;;;;;5.17;1.93;;;;;;;20.83;41.72;98774.41;6975974;28;20256;-77
2022/11/07 14:21:47;;;;;;;4.60;1.97;;;;;;;21.18;41.19;98759.69;6980891;28;20213;-78
2022/11/07 14:25:20;;;;;;;4.30;2.00;;;;;;;20.45;41.96;98780.34;6979853;28;20300;-77
2022/11/07 14:28:42;;;;;;;6.60;1.90;;;;;;;20.69;42.30;98779.59;6978253;28;20230;-78
2022/11/07 14:32:06;;;;;;;4.80;1.87;;;;;;;20.91;41.34;98779.38;6978885;28;20309;-77
2022/11/07 14:35:29;;;;;;;3.43;1.90;;;;;;;20.56;41.17;98773.78;6979258;28;20289;-77
2022/11/07 14:38:52;;;;;;;4.77;1.63;;;;;;;20.73;40.99;98764.25;6978109;28;20240;-77
2022/11/07 14:42:17;;;;;;;3.70;1.80;;;;;;;20.55;41.75;98774.88;6978793;28;20317;-77
2022/11/07 14:45:40;;;;;;;3.10;1.80;;;;;;;20.37;41.57;98764.44;6974797;28;20205;-78
2022/11/07 14:49:01;;;;;;;3.43;1.70;;;;;;;20.35;41.71;98750.19;6977756;28;20248;-77
2022/11/07 14:52:25;;;;;;;2.27;1.67;;;;;;;20.60;41.17;98761.22;6976780;28;20313;-77
2022/11/07 14:55:50;;;;;;;3.07;1.53;;;;;;;20.59;41.51;98776.84;6977398;28;20277;-77
2022/11/07 14:59:13;;;;;;;2.23;1.53;;;;;;;20.44;41.61;98775.94;6978123;28;20215;-77
2022/11/07 15:02:35;;;;;;;3.57;1.83;;;;;;;20.60;41.34;98762.03;6978726;28;20284;-77
2022/11/07 15:05:57;;;;;;;3.90;1.53;;;;;;;20.60;41.19;98774.91;6978691;28;20635;-78
2022/11/07 15:09:19;;;;;;;3.63;1.50;;;;;;;20.46;41.60;98774.59;6978096;28;20262;-79
2022/11/07 15:12:49;;;;;;;2.47;1.57;;;;;;;20.42;41.24;98759.81;6975798;28;20230;-78
2022/11/07 15:16:16;;;;;;;3.17;1.47;;;;;;;20.52;41.75;98779.00;6970450;28;20246;-78
2022/11/07 15:19:38;;;;;;;4.63;1.90;;;;;;;20.34;42.18;98768.53;6977694;28;20301;-78
2022/11/07 15:23:01;;;;;;;5.77;2.33;;;;;;;20.46;42.24;98779.25;6976771;28;20284;-78
2022/11/07 15:26:24;;;;;;;6.47;2.70;;;;;;;20.15;43.48;98761.88;6978328;28;20683;-78
2022/11/07 15:29:50;;;;;;;5.97;2.17;;;;;;;20.22;43.53;98762.47;6977061;28;20332;-78
2022/11/07 15:33:15;;;;;;;2.13;1.80;;;;;;;20.10;43.90;98752.84;6954122;28;20318;-78
2022/11/07 15:36:38;;;;;;;3.90;2.17;;;;;;;19.91;44.06;98763.38;6977226;28;20224;-78
2022/11/07 15:39:59;;;;;;;4.90;2.37;;;;;;;19.90;44.10;98782.78;6977162;28;20653;-78
2022/11/07 15:43:21;;;;;;;4.47;2.20;;;;;;;19.84;43.47;98790.16;6963348;28;20269;-78
2022/11/07 15:46:43;;;;;;;4.37;1.83;;;;;;;19.81;44.28;98774.25;6976980;28;20683;-79
2022/11/07 15:50:14;;;;;;;2.60;1.70;;;;;;;19.45;44.24;98788.00;6977070;28;20214;-79
2022/11/07 15:53:36;;;;;;;3.57;1.80;;;;;;;19.76;43.97;98787.09;6977555;28;20320;-79
2022/11/07 15:57:00;;;;;;;3.80;1.80;;;;;;;19.67;43.83;98772.25;6978694;28;20258;-79
2022/11/07 16:00:23;;;;;;;3.77;1.97;;;;;;;19.64;44.05;98770.06;6978323;28;20226;-79
2022/11/07 16:03:45;;;;;;;3.83;1.83;;;;;;;19.61;43.53;98773.31;6977613;28;20230;-80
2022/11/07 16:07:13;;;;;;;3.10;1.60;;;;;;;19.64;43.78;98773.59;6977447;28;20250;-79